Time;durP1;ratioP1;P1;durP2;ratioP2;P2;SDS_P1;SDS_P2;PMS_P1;PMS_P2;Temp;Humidity;BMP_temperature;BMP_pressure;BME280_temperature;BME280_humidity;BME280_pressure;Samples;Min_cycle;Max_cycle;Signal;HPM_P1;HPM_P2
2022/01/08 00:02:24;;;;;;;120.93;54.00;;;2.70;99.90;;;;;;5114430;28;20032;-62
2022/01/08 00:04:50;;;;;;;130.43;56.60;;;2.60;99.90;;;;;;5114400;28;20036;-62
2022/01/08 00:07:16;;;;;;;126.40;53.40;;;2.70;99.90;;;;;;5113263;28;20035;-62
2022/01/08 00:09:42;;;;;;;121.65;54.53;;;2.60;99.90;;;;;;5114431;28;20115;-62
2022/01/08 00:12:08;;;;;;;123.00;53.90;;;2.60;99.90;;;;;;5114404;28;20439;-62
2022/01/08 00:14:35;;;;;;;136.07;59.15;;;2.60;99.90;;;;;;5114381;28;20031;-62
2022/01/08 00:17:01;;;;;;;158.68;63.45;;;2.70;99.90;;;;;;5114312;28;20040;-62
2022/01/08 00:19:27;;;;;;;172.80;66.18;;;2.60;99.90;;;;;;5114133;28;20389;-62
2022/01/08 00:21:53;;;;;;;145.00;61.35;;;2.70;99.90;;;;;;5114398;28;20047;-61
2022/01/08 00:24:19;;;;;;;133.48;60.08;;;2.70;99.90;;;;;;5134903;28;20027;-62
2022/01/08 00:26:45;;;;;;;123.80;56.17;;;2.70;99.90;;;;;;5134747;28;20043;-62
2022/01/08 00:29:11;;;;;;;139.73;59.95;;;2.70;99.90;;;;;;5116428;28;20031;-62
2022/01/08 00:31:37;;;;;;;141.13;61.33;;;2.70;99.90;;;;;;5131070;28;20424;-61
2022/01/08 00:34:03;;;;;;;152.18;63.38;;;2.80;99.90;;;;;;5115902;28;20402;-62
2022/01/08 00:36:29;;;;;;;143.80;62.47;;;2.70;99.90;;;;;;5118054;28;20050;-62
2022/01/08 00:38:55;;;;;;;132.70;60.55;;;2.60;99.90;;;;;;5117927;28;20107;-62
2022/01/08 00:41:21;;;;;;;143.75;60.55;;;2.60;99.90;;;;;;5117704;28;20036;-62
2022/01/08 00:43:47;;;;;;;132.57;56.15;;;2.60;99.90;;;;;;5117650;28;20079;-62
2022/01/08 00:46:13;;;;;;;140.02;58.50;;;2.70;99.90;;;;;;5117864;28;20301;-62
2022/01/08 00:48:39;;;;;;;135.10;59.85;;;2.80;99.90;;;;;;5117534;28;20036;-62
2022/01/08 00:51:05;;;;;;;175.48;73.60;;;2.80;99.90;;;;;;5117709;28;20575;-62
2022/01/08 00:53:31;;;;;;;166.10;70.80;;;2.70;99.90;;;;;;5117713;28;20031;-62
2022/01/08 00:55:56;;;;;;;150.05;64.57;;;2.70;99.90;;;;;;5117557;28;20405;-62
2022/01/08 00:58:23;;;;;;;127.22;56.55;;;2.70;99.90;;;;;;5117476;28;20036;-62
2022/01/08 01:00:49;;;;;;;111.78;51.72;;;2.70;99.90;;;;;;5117568;28;20637;-62
2022/01/08 01:03:15;;;;;;;106.82;50.25;;;2.80;99.90;;;;;;5117547;28;20200;-62
2022/01/08 01:05:41;;;;;;;96.68;47.55;;;2.70;99.90;;;;;;5117436;28;20039;-62
2022/01/08 01:08:07;;;;;;;109.43;50.17;;;2.70;99.90;;;;;;5117723;28;20070;-62
2022/01/08 01:10:33;;;;;;;107.72;50.88;;;2.60;99.90;;;;;;5117329;28;20034;-62
2022/01/08 01:13:02;;;;;;;127.30;56.85;;;2.60;99.90;;;;;;5117096;28;20104;-62
2022/01/08 01:15:28;;;;;;;124.88;54.40;;;2.60;99.90;;;;;;5116901;28;20048;-61
2022/01/08 01:17:54;;;;;;;125.93;56.05;;;2.60;99.90;;;;;;5117269;28;20119;-62
2022/01/08 01:20:21;;;;;;;121.38;57.58;;;2.60;99.90;;;;;;5116989;28;20046;-61
2022/01/08 01:23:07;;;;;;;130.02;59.05;;;2.60;99.90;;;;;;5117176;28;20096;-61
2022/01/08 01:25:39;;;;;;;125.03;55.13;;;2.50;99.90;;;;;;5117115;28;20044;-61
2022/01/08 01:41:08;;;;;;;116.45;52.67;;;2.60;99.90;;;;;;5116886;28;20036;-61
2022/01/08 01:47:19;;;;;;;115.28;52.45;;;2.50;99.90;;;;;;5116625;28;20104;-61
2022/01/08 01:49:47;;;;;;;103.55;47.25;;;2.50;99.90;;;;;;5116638;28;20107;-61
2022/01/08 01:52:17;;;;;;;103.68;47.28;;;2.50;99.90;;;;;;5116515;28;20354;-62
2022/01/08 01:54:43;;;;;;;93.32;45.78;;;2.50;99.90;;;;;;5116516;28;20031;-62
2022/01/08 01:57:13;;;;;;;101.68;45.80;;;2.50;99.90;;;;;;5116513;28;20043;-62
2022/01/08 01:59:40;;;;;;;91.70;43.92;;;2.50;99.90;;;;;;5116337;28;20035;-61
2022/01/08 02:02:06;;;;;;;91.30;41.85;;;2.50;99.90;;;;;;5116066;28;20225;-62
2022/01/08 02:04:32;;;;;;;93.03;43.28;;;2.50;99.90;;;;;;5116229;28;20032;-62
2022/01/08 02:06:59;;;;;;;88.63;40.30;;;2.40;99.90;;;;;;5116056;28;20123;-62
2022/01/08 02:09:25;;;;;;;83.03;39.40;;;2.40;99.90;;;;;;5116225;28;20077;-61
2022/01/08 02:12:20;;;;;;;81.18;39.92;;;2.40;99.90;;;;;;5116127;28;20036;-61
2022/01/08 02:14:46;;;;;;;80.88;39.42;;;2.50;99.90;;;;;;5094621;28;20207;-61
2022/01/08 02:17:12;;;;;;;79.03;38.70;;;2.40;99.90;;;;;;5095583;28;20071;-61
2022/01/08 02:19:40;;;;;;;79.35;39.95;;;2.30;99.90;;;;;;5115886;28;20557;-61
2022/01/08 02:22:10;;;;;;;83.30;37.85;;;2.40;99.90;;;;;;5116132;28;20058;-61
2022/01/08 02:24:36;;;;;;;82.30;40.92;;;2.40;99.90;;;;;;5116305;28;20054;-61
2022/01/08 02:27:03;;;;;;;77.07;37.65;;;2.30;99.90;;;;;;5115499;28;20044;-61
2022/01/08 02:29:28;;;;;;;80.15;39.28;;;2.30;99.90;;;;;;5115869;28;20036;-61
2022/01/08 02:31:56;;;;;;;78.13;38.67;;;2.30;99.90;;;;;;5115748;28;20028;-61
2022/01/08 02:34:24;;;;;;;76.95;37.65;;;2.30;99.90;;;;;;5115596;28;20028;-61
2022/01/08 02:36:50;;;;;;;75.05;38.13;;;2.30;99.90;;;;;;5115712;28;20036;-61
2022/01/08 02:39:16;;;;;;;83.82;38.72;;;2.30;99.90;;;;;;5115870;28;20173;-62
2022/01/08 02:41:42;;;;;;;78.22;37.22;;;2.30;99.90;;;;;;5115739;28;20065;-61
2022/01/08 02:44:10;;;;;;;80.90;38.42;;;2.30;99.90;;;;;;5115586;28;20389;-61
2022/01/08 02:46:39;;;;;;;76.20;36.88;;;2.30;99.90;;;;;;5115352;28;20049;-61
2022/01/08 02:49:06;;;;;;;77.32;37.45;;;2.20;99.90;;;;;;5115324;28;20036;-61
2022/01/08 02:51:34;;;;;;;76.72;38.10;;;2.20;99.90;;;;;;5115563;28;20039;-61
2022/01/08 02:54:02;;;;;;;80.25;39.50;;;2.10;99.90;;;;;;5115519;28;20039;-61
2022/01/08 02:56:28;;;;;;;78.45;39.25;;;2.10;99.90;;;;;;5115023;28;20040;-61
2022/01/08 02:58:53;;;;;;;76.65;38.75;;;2.20;99.90;;;;;;5115360;28;20036;-61
2022/01/08 03:01:20;;;;;;;78.18;36.70;;;2.20;99.90;;;;;;5115201;28;20091;-61
2022/01/08 03:03:46;;;;;;;76.93;38.42;;;2.20;99.90;;;;;;5115242;28;20032;-62
2022/01/08 03:06:12;;;;;;;80.28;38.55;;;2.20;99.90;;;;;;5115313;28;20043;-61
2022/01/08 03:08:38;;;;;;;81.53;37.67;;;2.10;99.90;;;;;;5115208;28;20092;-62
2022/01/08 03:11:04;;;;;;;78.82;38.08;;;2.20;99.90;;;;;;5114885;28;20036;-61
2022/01/08 03:13:31;;;;;;;85.25;39.60;;;2.20;99.90;;;;;;5115062;28;20061;-61
2022/01/08 03:15:56;;;;;;;80.63;38.72;;;2.30;99.90;;;;;;5114741;28;20036;-61
2022/01/08 03:18:22;;;;;;;80.07;38.83;;;2.20;99.90;;;;;;5114952;28;20492;-62
2022/01/08 03:21:01;;;;;;;79.07;37.63;;;2.20;99.90;;;;;;5114972;28;20359;-61
2022/01/08 03:23:44;;;;;;;75.47;36.25;;;2.20;99.90;;;;;;5114940;28;20031;-62
2022/01/08 03:26:10;;;;;;;75.28;37.03;;;2.10;99.90;;;;;;5114783;28;20048;-61
2022/01/08 03:28:36;;;;;;;74.00;36.78;;;2.10;99.90;;;;;;5115002;28;20031;-61
2022/01/08 03:31:03;;;;;;;69.78;35.45;;;2.10;99.90;;;;;;5114971;28;20028;-61
2022/01/08 03:33:29;;;;;;;65.28;33.90;;;2.10;99.90;;;;;;5114869;28;20374;-61
2022/01/08 03:35:55;;;;;;;77.35;34.88;;;2.10;99.90;;;;;;5114859;28;20081;-61
2022/01/08 03:38:21;;;;;;;71.03;34.70;;;2.10;99.90;;;;;;5114737;28;20053;-62
2022/01/08 03:40:47;;;;;;;75.05;34.83;;;2.00;99.90;;;;;;5114649;28;20031;-61
2022/01/08 03:43:13;;;;;;;68.30;33.95;;;2.00;99.90;;;;;;5114786;28;20517;-61
2022/01/08 03:45:39;;;;;;;72.43;34.65;;;2.10;99.90;;;;;;5114585;28;20060;-62
2022/01/08 03:50:49;;;;;;;73.47;36.45;;;2.10;99.90;;;;;;5114660;28;20402;-61
2022/01/08 03:53:15;;;;;;;67.10;36.58;;;2.00;99.90;;;;;;5114428;28;20040;-61
2022/01/08 03:55:41;;;;;;;77.30;37.65;;;2.00;99.90;;;;;;5114699;28;20084;-61
2022/01/08 03:58:07;;;;;;;73.80;36.78;;;2.10;99.90;;;;;;5114670;28;20031;-61
2022/01/08 04:00:33;;;;;;;69.10;35.78;;;2.10;99.90;;;;;;5114612;28;20047;-61
2022/01/08 04:02:59;;;;;;;70.22;34.38;;;2.10;99.90;;;;;;5114592;28;20089;-61
2022/01/08 04:05:25;;;;;;;70.43;36.25;;;2.10;99.90;;;;;;5114676;28;20142;-61
2022/01/08 04:07:51;;;;;;;70.75;36.35;;;2.10;99.90;;;;;;5114493;28;20039;-61
2022/01/08 04:10:17;;;;;;;78.50;37.42;;;2.10;99.90;;;;;;5118476;28;20384;-61
2022/01/08 04:12:48;;;;;;;73.80;37.00;;;2.10;99.90;;;;;;5118413;28;20108;-61
2022/01/08 04:17:51;;;;;;;71.63;34.88;;;2.10;99.90;;;;;;5118236;28;20031;-61
2022/01/08 04:20:18;;;;;;;77.70;36.90;;;2.10;99.90;;;;;;5118184;28;20397;-61
2022/01/08 04:22:47;;;;;;;70.75;34.20;;;2.10;99.90;;;;;;5118257;28;20043;-62
2022/01/08 04:25:13;;;;;;;68.22;34.35;;;2.00;99.90;;;;;;5118309;28;20047;-61
2022/01/08 04:27:39;;;;;;;62.60;32.75;;;2.00;99.90;;;;;;5118016;28;20043;-62
2022/01/08 04:30:08;;;;;;;59.45;32.05;;;2.00;99.90;;;;;;5118363;28;20473;-61
2022/01/08 04:32:34;;;;;;;65.35;33.03;;;2.10;99.90;;;;;;5118125;28;20047;-62
2022/01/08 04:35:01;;;;;;;59.65;32.10;;;2.10;99.90;;;;;;5117859;28;20039;-61
2022/01/08 04:37:27;;;;;;;63.78;32.33;;;2.10;99.90;;;;;;5118111;28;20118;-61
2022/01/08 04:39:53;;;;;;;61.33;32.20;;;2.00;99.90;;;;;;5117850;28;20040;-61
2022/01/08 04:42:19;;;;;;;64.95;32.53;;;2.00;99.90;;;;;;5117735;28;20036;-62
2022/01/08 04:44:45;;;;;;;63.05;31.08;;;2.10;99.90;;;;;;5117913;28;20044;-62
2022/01/08 04:47:11;;;;;;;66.95;36.00;;;2.10;99.90;;;;;;5117637;28;20039;-61
2022/01/08 04:49:37;;;;;;;64.93;34.25;;;2.10;99.90;;;;;;5117635;28;20058;-62
2022/01/08 04:52:04;;;;;;;65.45;33.60;;;2.10;99.90;;;;;;5117688;28;20446;-62
2022/01/08 04:54:30;;;;;;;74.20;34.20;;;2.00;99.90;;;;;;5117713;28;20027;-60
2022/01/08 04:56:56;;;;;;;63.58;33.78;;;2.10;99.90;;;;;;5117621;28;20069;-62
2022/01/08 04:59:21;;;;;;;60.40;31.58;;;1.90;99.90;;;;;;5117676;28;20042;-61
2022/01/08 05:01:47;;;;;;;65.80;33.88;;;1.90;99.90;;;;;;5117581;28;20428;-61
2022/01/08 05:04:13;;;;;;;65.60;33.17;;;1.90;99.90;;;;;;5117448;28;20042;-62
2022/01/08 05:06:39;;;;;;;74.43;35.22;;;2.00;99.90;;;;;;5099034;28;20405;-61
2022/01/08 05:09:06;;;;;;;57.95;33.05;;;2.00;99.90;;;;;;5117407;28;20036;-61
2022/01/08 05:11:32;;;;;;;68.50;34.72;;;2.00;99.90;;;;;;5117044;28;20039;-61
2022/01/08 05:13:58;;;;;;;69.30;34.42;;;2.00;99.90;;;;;;5117322;28;20161;-61
2022/01/08 05:16:26;;;;;;;62.80;32.35;;;2.10;99.90;;;;;;5117108;28;20043;-62
2022/01/08 05:18:54;;;;;;;74.72;33.97;;;2.00;99.90;;;;;;5117033;28;20035;-62
2022/01/08 05:23:47;;;;;;;76.63;35.25;;;1.90;99.90;;;;;;5116977;28;20473;-62
2022/01/08 05:26:13;;;;;;;68.45;33.28;;;2.00;99.90;;;;;;5116869;28;20133;-61
2022/01/08 05:28:39;;;;;;;69.82;35.33;;;2.00;99.90;;;;;;5116957;28;20104;-61
2022/01/08 05:31:05;;;;;;;67.45;35.05;;;2.00;99.90;;;;;;5117036;28;20453;-62
2022/01/08 05:33:31;;;;;;;73.45;35.70;;;2.00;99.90;;;;;;5116989;28;20024;-62
2022/01/08 05:35:57;;;;;;;77.45;36.67;;;1.90;99.90;;;;;;5116897;28;20047;-62
2022/01/08 05:38:23;;;;;;;75.75;36.17;;;2.00;99.90;;;;;;5116860;28;20477;-62
2022/01/08 05:40:49;;;;;;;75.78;37.45;;;2.00;99.90;;;;;;5116638;28;20047;-62
2022/01/08 05:43:15;;;;;;;81.30;36.75;;;1.90;99.90;;;;;;5116596;28;20039;-62
2022/01/08 05:45:41;;;;;;;72.63;36.40;;;1.90;99.90;;;;;;5116514;28;20031;-62
2022/01/08 05:48:08;;;;;;;62.55;35.05;;;1.90;99.90;;;;;;5116507;28;20105;-62
2022/01/08 05:50:34;;;;;;;68.03;34.88;;;2.00;99.90;;;;;;5116524;28;20024;-62
2022/01/08 05:53:00;;;;;;;74.10;36.58;;;2.00;99.90;;;;;;5116754;28;20062;-62
2022/01/08 05:55:26;;;;;;;65.90;34.50;;;2.10;99.90;;;;;;5116408;28;20031;-62
2022/01/08 05:57:52;;;;;;;69.28;35.25;;;2.10;99.90;;;;;;5116374;28;20040;-61
2022/01/08 06:00:19;;;;;;;72.35;35.47;;;2.10;99.90;;;;;;5116095;28;20363;-62
2022/01/08 06:02:45;;;;;;;66.22;36.67;;;2.10;99.90;;;;;;5116482;28;20487;-61
2022/01/08 06:05:11;;;;;;;65.68;35.58;;;2.10;99.90;;;;;;5116277;28;20105;-62
2022/01/08 06:07:37;;;;;;;66.82;35.90;;;2.00;99.90;;;;;;5115924;28;20400;-62
2022/01/08 06:10:04;;;;;;;65.80;33.88;;;2.10;99.90;;;;;;5116199;28;20062;-61
2022/01/08 06:12:29;;;;;;;67.50;35.25;;;2.10;99.90;;;;;;5115998;28;20028;-62
2022/01/08 06:14:55;;;;;;;77.28;37.00;;;2.10;99.90;;;;;;5115838;28;20050;-62
2022/01/08 06:17:22;;;;;;;73.63;33.83;;;2.20;99.90;;;;;;5115867;28;20134;-62
2022/01/08 06:19:48;;;;;;;76.68;36.83;;;2.10;99.90;;;;;;5116124;28;20441;-62
2022/01/08 06:22:15;;;;;;;76.13;37.70;;;2.10;99.90;;;;;;5116013;28;20042;-62
2022/01/08 06:24:41;;;;;;;63.78;34.97;;;2.00;99.90;;;;;;5116163;28;20102;-62
2022/01/08 06:27:07;;;;;;;65.75;35.80;;;2.00;99.90;;;;;;5115755;28;20637;-62
2022/01/08 06:29:33;;;;;;;84.70;41.38;;;1.90;99.90;;;;;;5115751;28;20396;-62
2022/01/08 06:31:59;;;;;;;80.03;40.97;;;2.00;99.90;;;;;;5115234;28;20114;-62
2022/01/08 06:34:25;;;;;;;85.85;42.78;;;2.00;99.90;;;;;;5115664;28;20124;-62
2022/01/08 06:36:51;;;;;;;79.43;39.20;;;2.00;99.90;;;;;;5115560;28;20464;-62
2022/01/08 06:39:18;;;;;;;81.47;41.65;;;2.00;99.90;;;;;;5115632;28;20428;-62
2022/01/08 06:41:44;;;;;;;82.25;41.08;;;2.00;99.90;;;;;;5115795;28;20085;-62
2022/01/08 06:44:11;;;;;;;68.05;37.50;;;2.00;99.90;;;;;;5115247;28;20031;-62
2022/01/08 06:46:37;;;;;;;70.50;36.85;;;2.00;99.90;;;;;;5115120;28;20031;-62
2022/01/08 06:49:03;;;;;;;78.05;36.88;;;2.00;99.90;;;;;;5115538;28;20542;-62
2022/01/08 06:51:30;;;;;;;75.63;36.90;;;2.00;99.90;;;;;;5115253;28;20039;-62
2022/01/08 06:53:55;;;;;;;89.90;42.35;;;2.10;99.90;;;;;;5115333;28;20039;-62
2022/01/08 06:56:22;;;;;;;91.53;46.42;;;2.10;99.90;;;;;;5115673;28;20500;-62
2022/01/08 06:58:48;;;;;;;103.25;48.25;;;1.90;99.90;;;;;;5115057;28;20092;-62
2022/01/08 07:01:14;;;;;;;89.78;43.78;;;1.90;99.90;;;;;;5115313;28;20043;-62
2022/01/08 07:03:41;;;;;;;98.10;43.92;;;2.00;99.90;;;;;;5115257;28;20040;-62
2022/01/08 07:06:07;;;;;;;106.03;43.88;;;2.00;99.90;;;;;;5114999;28;20046;-62
2022/01/08 07:08:32;;;;;;;75.75;39.83;;;2.10;99.90;;;;;;5115193;28;20508;-62
2022/01/08 07:10:58;;;;;;;81.30;40.47;;;2.00;99.90;;;;;;5115249;28;20036;-62
2022/01/08 07:13:24;;;;;;;90.97;45.78;;;2.00;99.90;;;;;;5114980;28;20039;-62
2022/01/08 07:15:50;;;;;;;112.03;52.42;;;2.00;99.90;;;;;;5114800;28;20048;-62
2022/01/08 07:18:16;;;;;;;85.85;40.35;;;2.00;99.90;;;;;;5114868;28;20503;-62
2022/01/08 07:20:42;;;;;;;70.88;37.05;;;1.90;99.90;;;;;;5114862;28;20051;-62
2022/01/08 07:23:08;;;;;;;63.20;35.33;;;2.00;99.90;;;;;;5114897;28;20038;-62
2022/01/08 07:25:34;;;;;;;66.32;35.17;;;2.10;99.90;;;;;;5114628;28;20044;-62
2022/01/08 07:28:00;;;;;;;83.13;37.92;;;2.10;99.90;;;;;;5114898;28;20055;-62
2022/01/08 07:30:26;;;;;;;71.90;36.03;;;2.10;99.90;;;;;;5114862;28;20512;-62
2022/01/08 07:32:53;;;;;;;66.90;36.50;;;2.30;99.90;;;;;;5114556;28;20040;-62
2022/01/08 07:35:22;;;;;;;66.68;36.50;;;2.30;99.90;;;;;;5114731;28;20032;-62
2022/01/08 07:37:50;;;;;;;78.35;41.25;;;2.20;99.90;;;;;;5114960;28;20103;-62
2022/01/08 07:40:17;;;;;;;77.70;41.38;;;2.20;99.90;;;;;;5114650;28;20065;-62
2022/01/08 07:42:43;;;;;;;112.93;54.40;;;2.20;99.90;;;;;;5114736;28;20039;-62
2022/01/08 07:45:10;;;;;;;84.68;42.90;;;2.30;99.90;;;;;;5118954;28;20035;-62
2022/01/08 07:47:37;;;;;;;84.88;41.47;;;2.40;99.90;;;;;;5118567;28;20039;-62
2022/01/08 07:50:05;;;;;;;61.03;35.25;;;2.40;99.90;;;;;;5118870;28;20100;-62
2022/01/08 07:52:31;;;;;;;77.20;40.72;;;2.50;99.90;;;;;;5119018;28;20470;-62
2022/01/08 07:54:57;;;;;;;79.70;40.05;;;2.40;99.90;;;;;;5118678;28;20036;-62
2022/01/08 07:57:23;;;;;;;81.60;38.78;;;2.50;99.90;;;;;;5118832;28;20039;-62
2022/01/08 07:59:49;;;;;;;74.00;37.28;;;2.40;99.90;;;;;;5118755;28;20065;-62
2022/01/08 08:02:15;;;;;;;71.47;37.08;;;2.40;99.90;;;;;;5118619;28;20114;-62
2022/01/08 08:04:41;;;;;;;67.85;37.00;;;2.40;99.90;;;;;;5118593;28;20047;-62
2022/01/08 08:07:07;;;;;;;71.85;36.55;;;2.50;99.90;;;;;;5118540;28;20047;-62
2022/01/08 08:09:33;;;;;;;69.28;38.00;;;2.50;99.90;;;;;;5118361;28;20035;-62
2022/01/08 08:11:59;;;;;;;72.82;35.58;;;2.60;99.90;;;;;;5118510;28;20038;-62
2022/01/08 08:14:25;;;;;;;75.80;36.90;;;2.60;99.90;;;;;;5118503;28;20035;-62
2022/01/08 08:16:51;;;;;;;79.07;37.13;;;2.50;99.90;;;;;;5118000;28;20039;-62
2022/01/08 08:19:17;;;;;;;83.57;37.47;;;2.40;99.90;;;;;;5118380;28;20107;-62
2022/01/08 08:21:43;;;;;;;72.53;36.08;;;2.50;99.90;;;;;;5118659;28;20122;-62
2022/01/08 08:24:09;;;;;;;69.93;38.78;;;2.60;99.90;;;;;;5118078;28;20106;-62
2022/01/08 08:26:36;;;;;;;68.45;36.47;;;2.60;99.90;;;;;;5118025;28;20067;-62
2022/01/08 08:29:03;;;;;;;77.13;34.67;;;2.50;99.90;;;;;;5118271;28;20477;-62
2022/01/08 08:31:29;;;;;;;70.90;36.75;;;2.50;99.90;;;;;;5118025;28;20028;-62
2022/01/08 08:33:55;;;;;;;70.90;37.28;;;2.60;99.90;;;;;;5118157;28;20512;-62
2022/01/08 08:36:21;;;;;;;83.28;39.22;;;2.70;99.90;;;;;;5117702;28;20698;-62
2022/01/08 08:38:48;;;;;;;74.93;38.67;;;2.70;99.90;;;;;;5117902;28;20044;-62
2022/01/08 08:41:15;;;;;;;66.30;35.58;;;2.70;99.90;;;;;;5118099;28;20118;-63
2022/01/08 08:43:41;;;;;;;60.38;34.15;;;2.60;99.90;;;;;;5117824;28;20094;-63
2022/01/08 08:46:07;;;;;;;79.20;39.05;;;2.60;99.90;;;;;;5117650;28;20043;-62
2022/01/08 08:48:34;;;;;;;75.63;40.65;;;2.70;99.90;;;;;;5117665;28;20035;-62
2022/01/08 08:51:01;;;;;;;78.45;43.22;;;2.80;99.90;;;;;;5117513;28;20046;-62
2022/01/08 08:53:31;;;;;;;78.95;42.70;;;2.70;99.90;;;;;;5117651;28;20031;-63
2022/01/08 08:56:01;;;;;;;68.65;37.75;;;2.60;99.90;;;;;;5117133;28;20494;-62
2022/01/08 08:58:28;;;;;;;72.38;39.35;;;2.60;99.90;;;;;;5117543;28;20038;-62
2022/01/08 09:00:55;;;;;;;71.53;41.53;;;2.50;99.90;;;;;;5117515;28;20520;-62
2022/01/08 09:03:22;;;;;;;78.75;42.65;;;2.50;99.90;;;;;;5117511;28;20042;-62
2022/01/08 09:05:51;;;;;;;72.80;40.40;;;2.50;99.90;;;;;;5117217;28;20513;-62
2022/01/08 09:08:20;;;;;;;74.68;40.03;;;2.50;99.90;;;;;;5117342;28;20111;-62
2022/01/08 09:10:47;;;;;;;73.38;40.22;;;2.50;99.90;;;;;;5117617;28;20081;-62
2022/01/08 09:13:14;;;;;;;79.65;43.28;;;2.60;99.90;;;;;;5117206;28;20032;-62
2022/01/08 09:15:42;;;;;;;73.57;41.28;;;2.60;99.90;;;;;;5117088;28;20026;-62
2022/01/08 09:18:10;;;;;;;76.82;42.70;;;2.50;99.90;;;;;;5117205;28;20107;-62
2022/01/08 09:20:37;;;;;;;75.32;43.35;;;2.60;99.90;;;;;;5117033;28;20042;-62
2022/01/08 09:23:04;;;;;;;70.28;39.10;;;2.70;99.90;;;;;;5117299;28;20032;-62
2022/01/08 09:25:30;;;;;;;78.00;42.15;;;2.60;99.90;;;;;;5117116;28;20085;-62
2022/01/08 09:27:55;;;;;;;70.90;40.47;;;2.60;99.90;;;;;;5116791;28;20038;-62
2022/01/08 09:30:22;;;;;;;69.10;39.00;;;2.30;99.90;;;;;;5116928;28;20035;-62
2022/01/08 09:32:48;;;;;;;69.78;39.20;;;2.50;99.90;;;;;;5116737;28;20023;-62
2022/01/08 09:35:15;;;;;;;70.43;40.00;;;2.70;99.90;;;;;;5116927;28;20066;-63
2022/01/08 09:37:42;;;;;;;69.40;39.58;;;2.70;99.90;;;;;;5116888;28;20104;-62
2022/01/08 09:40:13;;;;;;;69.47;38.95;;;2.80;99.90;;;;;;5116769;28;20236;-62
2022/01/08 09:42:43;;;;;;;67.47;37.35;;;2.80;99.90;;;;;;5116541;28;20497;-63
2022/01/08 09:45:10;;;;;;;62.83;38.00;;;2.80;99.90;;;;;;5116639;28;20035;-62
2022/01/08 09:47:36;;;;;;;66.65;36.90;;;2.80;99.90;;;;;;5116249;28;20409;-62
2022/01/08 09:50:03;;;;;;;61.75;35.42;;;2.80;99.90;;;;;;5116607;28;20258;-63
2022/01/08 09:52:30;;;;;;;61.63;34.88;;;2.80;99.90;;;;;;5116563;28;20042;-62
2022/01/08 09:54:56;;;;;;;55.53;33.03;;;2.90;99.90;;;;;;5116161;28;20031;-63
2022/01/08 09:57:23;;;;;;;58.40;31.85;;;2.90;99.90;;;;;;5116423;28;20031;-63
2022/01/08 09:59:49;;;;;;;50.63;29.33;;;2.90;99.90;;;;;;5116293;28;20121;-63
2022/01/08 10:02:21;;;;;;;52.90;30.00;;;2.90;99.90;;;;;;5116262;28;20044;-63
2022/01/08 10:04:49;;;;;;;52.50;29.52;;;2.80;99.90;;;;;;5116415;28;20111;-63
2022/01/08 10:07:24;;;;;;;51.20;27.95;;;2.90;99.90;;;;;;5115333;28;20050;-63
2022/01/08 10:10:10;;;;;;;47.83;28.75;;;3.00;99.90;;;;;;5116197;28;20023;-63
2022/01/08 10:12:49;;;;;;;53.50;29.83;;;3.00;99.90;;;;;;5115827;28;20046;-63
2022/01/08 10:18:08;;;;;;;52.50;28.23;;;3.30;99.90;;;;;;5115913;28;20036;-63
2022/01/08 10:20:41;;;;;;;51.15;27.35;;;3.30;99.90;;;;;;5115943;28;20046;-63
2022/01/08 10:23:16;;;;;;;49.13;27.95;;;3.40;99.90;;;;;;5135838;27;20043;-63
2022/01/08 10:26:01;;;;;;;60.92;30.20;;;3.50;99.90;;;;;;5136457;27;20112;-63
2022/01/08 10:28:35;;;;;;;55.08;29.08;;;3.60;99.90;;;;;;5136274;27;20043;-63
2022/01/08 10:31:13;;;;;;;55.47;29.55;;;3.60;99.90;;;;;;5136217;27;20043;-63
2022/01/08 10:33:41;;;;;;;53.13;28.83;;;3.70;99.90;;;;;;5095570;28;20032;-63
2022/01/08 10:36:07;;;;;;;58.28;30.00;;;3.50;99.90;;;;;;5095487;28;20505;-63
2022/01/08 10:38:34;;;;;;;55.78;30.05;;;3.50;99.90;;;;;;5095129;28;20024;-63
2022/01/08 10:41:01;;;;;;;51.65;28.52;;;3.20;99.90;;;;;;5095277;28;20032;-63
2022/01/08 10:43:32;;;;;;;52.10;29.27;;;3.20;99.90;;;;;;5095221;28;20498;-63
2022/01/08 10:46:13;;;;;;;52.97;29.23;;;3.30;99.90;;;;;;5094888;28;20138;-63
2022/01/08 10:48:49;;;;;;;59.42;32.08;;;3.40;99.90;;;;;;5094891;28;20210;-63
2022/01/08 10:51:24;;;;;;;56.08;31.17;;;3.40;99.90;;;;;;5094981;28;20486;-63
2022/01/08 10:53:56;;;;;;;62.97;33.47;;;3.40;99.90;;;;;;5094980;28;20409;-63
2022/01/08 10:56:24;;;;;;;57.00;32.28;;;3.50;99.90;;;;;;5094902;28;20147;-63
2022/01/08 10:58:53;;;;;;;61.40;34.05;;;3.50;99.90;;;;;;5094821;28;20068;-63
2022/01/08 11:01:43;;;;;;;66.80;36.75;;;3.50;99.90;;;;;;5094862;28;20035;-63
2022/01/08 11:04:11;;;;;;;63.72;36.50;;;3.40;99.90;;;;;;5094863;28;20071;-63
2022/01/08 11:07:15;;;;;;;70.55;37.92;;;3.40;99.90;;;;;;5094606;28;20062;-63
2022/01/08 11:09:43;;;;;;;70.40;36.35;;;3.40;99.90;;;;;;5078574;28;20044;-63
2022/01/08 11:12:14;;;;;;;69.10;36.20;;;3.60;99.90;;;;;;5095898;28;20031;-63
2022/01/08 11:17:47;;;;;;;69.70;37.35;;;3.50;99.90;;;;;;5114557;28;20496;-63
2022/01/08 11:20:23;;;;;;;69.32;35.00;;;3.30;99.90;;;;;;5110829;28;20279;-63
2022/01/08 11:22:51;;;;;;;82.50;38.35;;;3.50;99.90;;;;;;5096766;28;20036;-63
2022/01/08 11:25:21;;;;;;;89.40;42.05;;;3.50;99.90;;;;;;5114782;28;20031;-63
2022/01/08 11:28:11;;;;;;;81.65;41.25;;;3.50;99.90;;;;;;5114699;28;20075;-63
2022/01/08 11:30:43;;;;;;;92.57;43.55;;;3.50;99.90;;;;;;5114293;28;20535;-63
2022/01/08 11:33:18;;;;;;;77.68;40.17;;;3.60;99.90;;;;;;5109980;28;20119;-63
2022/01/08 11:35:46;;;;;;;72.60;40.35;;;3.50;99.90;;;;;;5114631;28;20024;-63
2022/01/08 11:38:14;;;;;;;81.70;39.28;;;3.50;99.90;;;;;;5114700;28;20043;-63
2022/01/08 11:40:43;;;;;;;96.03;44.08;;;3.60;99.90;;;;;;5114717;28;20477;-63
2022/01/08 11:43:13;;;;;;;75.05;41.60;;;3.60;99.90;;;;;;5114309;28;20046;-63
2022/01/08 11:45:43;;;;;;;81.60;42.63;;;3.70;99.90;;;;;;5114523;28;20040;-63
2022/01/08 11:48:11;;;;;;;68.93;36.47;;;3.70;99.90;;;;;;5114454;28;20126;-63
2022/01/08 11:50:38;;;;;;;90.07;41.55;;;3.70;99.90;;;;;;5114431;28;20066;-63
2022/01/08 11:53:26;;;;;;;102.18;44.85;;;3.90;99.90;;;;;;5114730;28;20073;-63
2022/01/08 11:56:01;;;;;;;82.07;42.20;;;3.60;99.90;;;;;;5114449;28;20040;-62
2022/01/08 11:58:30;;;;;;;81.15;41.72;;;3.80;99.90;;;;;;5114595;28;20093;-62
2022/01/08 12:01:13;;;;;;;82.90;41.35;;;3.90;99.90;;;;;;5114457;28;20044;-62
2022/01/08 12:03:51;;;;;;;81.40;41.00;;;3.70;99.90;;;;;;5114665;28;20035;-63
2022/01/08 12:08:49;;;;;;;74.93;38.80;;;3.70;99.90;;;;;;5114549;28;20093;-62
2022/01/08 12:11:15;;;;;;;76.80;41.78;;;3.50;99.90;;;;;;5114260;28;20036;-63
2022/01/08 12:13:48;;;;;;;76.63;41.10;;;3.50;99.90;;;;;;5114576;28;20028;-63
2022/01/08 12:16:48;;;;;;;70.95;39.83;;;3.60;99.90;;;;;;5114608;28;20073;-62
2022/01/08 12:19:36;;;;;;;81.97;40.92;;;3.50;99.90;;;;;;5053777;28;20058;-62
2022/01/08 12:22:21;;;;;;;71.65;39.67;;;3.60;99.90;;;;;;5093976;28;20481;-63
2022/01/08 12:25:00;;;;;;;67.88;38.83;;;3.70;99.90;;;;;;5093937;28;20482;-63
2022/01/08 12:27:34;;;;;;;86.38;44.38;;;3.60;99.90;;;;;;5094013;28;20072;-62
2022/01/08 12:30:19;;;;;;;86.65;43.25;;;3.70;99.90;;;;;;5095860;28;20058;-63
2022/01/08 12:32:48;;;;;;;85.40;44.80;;;3.60;99.90;;;;;;5110840;28;20088;-63
2022/01/08 12:35:21;;;;;;;92.43;49.47;;;3.80;99.90;;;;;;5118229;28;20034;-63
2022/01/08 12:37:54;;;;;;;103.30;55.85;;;3.70;99.90;;;;;;5117938;28;20400;-62
2022/01/08 12:40:35;;;;;;;112.43;58.00;;;3.60;99.90;;;;;;5117986;28;20035;-63
2022/01/08 12:43:23;;;;;;;105.03;57.40;;;3.50;99.90;;;;;;5118128;28;20059;-62
2022/01/08 12:45:51;;;;;;;107.18;57.50;;;3.40;99.90;;;;;;5117541;28;20122;-62
2022/01/08 12:48:18;;;;;;;101.50;54.22;;;3.40;99.90;;;;;;5117720;28;20036;-62
2022/01/08 12:50:44;;;;;;;92.45;52.13;;;3.40;99.90;;;;;;5117655;28;20481;-63
2022/01/08 12:53:22;;;;;;;88.20;50.08;;;3.40;99.90;;;;;;5117645;28;20028;-63
2022/01/08 12:55:47;;;;;;;81.40;46.17;;;3.40;99.90;;;;;;5117687;28;20118;-62
2022/01/08 12:58:24;;;;;;;83.93;47.65;;;3.30;99.90;;;;;;5117596;28;20063;-63
2022/01/08 13:01:07;;;;;;;93.13;50.38;;;3.30;99.90;;;;;;5117451;28;20035;-63
2022/01/08 13:03:47;;;;;;;79.90;46.85;;;3.40;99.90;;;;;;5117544;28;20043;-63
2022/01/08 13:06:13;;;;;;;76.47;44.33;;;3.40;99.90;;;;;;5117453;28;20031;-63
2022/01/08 13:08:41;;;;;;;81.63;46.45;;;3.50;99.90;;;;;;5117374;28;20031;-63
2022/01/08 13:11:10;;;;;;;74.78;43.40;;;3.40;99.90;;;;;;5117170;28;20135;-63
2022/01/08 13:13:57;;;;;;;74.90;39.83;;;3.40;99.90;;;;;;5117190;28;20097;-63
2022/01/08 13:16:29;;;;;;;63.33;35.80;;;3.30;99.90;;;;;;5117160;28;20050;-63